sensor_id;sensor_type;location;lat;lon;timestamp;temperature;humidity
16980;DHT22;42288;52.182;21.156;2023-04-24T00:01:51;13.00;67.70
16980;DHT22;42288;52.182;21.156;2023-04-24T00:04:18;12.90;67.90
16980;DHT22;42288;52.182;21.156;2023-04-24T00:06:44;12.80;68.20
16980;DHT22;42288;52.182;21.156;2023-04-24T00:09:10;12.60;68.90
16980;DHT22;42288;52.182;21.156;2023-04-24T00:11:36;12.40;69.80
16980;DHT22;42288;52.182;21.156;2023-04-24T00:14:02;12.20;70.60
16980;DHT22;42288;52.182;21.156;2023-04-24T00:16:28;12.40;70.40
16980;DHT22;42288;52.182;21.156;2023-04-24T00:18:54;12.40;69.80
16980;DHT22;42288;52.182;21.156;2023-04-24T00:21:20;12.40;70.00
16980;DHT22;42288;52.182;21.156;2023-04-24T00:23:45;12.40;70.00
16980;DHT22;42288;52.182;21.156;2023-04-24T00:26:11;12.40;70.40
16980;DHT22;42288;52.182;21.156;2023-04-24T00:28:37;12.40;70.50
16980;DHT22;42288;52.182;21.156;2023-04-24T00:31:02;12.30;71.10
16980;DHT22;42288;52.182;21.156;2023-04-24T00:33:28;12.30;71.20
16980;DHT22;42288;52.182;21.156;2023-04-24T00:35:53;12.20;71.70
16980;DHT22;42288;52.182;21.156;2023-04-24T00:38:19;12.10;72.40
16980;DHT22;42288;52.182;21.156;2023-04-24T00:40:45;12.20;72.50
16980;DHT22;42288;52.182;21.156;2023-04-24T00:43:11;12.30;72.60
16980;DHT22;42288;52.182;21.156;2023-04-24T00:45:37;12.30;72.40
16980;DHT22;42288;52.182;21.156;2023-04-24T00:48:02;12.40;72.30
16980;DHT22;42288;52.182;21.156;2023-04-24T00:50:29;12.50;72.40
16980;DHT22;42288;52.182;21.156;2023-04-24T00:52:56;12.10;73.70
16980;DHT22;42288;52.182;21.156;2023-04-24T00:55:21;12.00;74.90
16980;DHT22;42288;52.182;21.156;2023-04-24T00:57:47;12.10;74.30
16980;DHT22;42288;52.182;21.156;2023-04-24T01:00:14;12.20;73.90
16980;DHT22;42288;52.182;21.156;2023-04-24T01:02:41;12.20;73.70
16980;DHT22;42288;52.182;21.156;2023-04-24T01:05:14;12.30;73.30
16980;DHT22;42288;52.182;21.156;2023-04-24T01:07:45;12.40;72.90
16980;DHT22;42288;52.182;21.156;2023-04-24T01:10:13;12.40;72.60
16980;DHT22;42288;52.182;21.156;2023-04-24T01:12:39;12.20;72.90
16980;DHT22;42288;52.182;21.156;2023-04-24T01:15:05;12.30;73.20
16980;DHT22;42288;52.182;21.156;2023-04-24T01:17:32;12.30;73.20
16980;DHT22;42288;52.182;21.156;2023-04-24T01:19:59;12.40;73.00
16980;DHT22;42288;52.182;21.156;2023-04-24T01:22:25;12.50;73.00
16980;DHT22;42288;52.182;21.156;2023-04-24T01:24:51;12.40;73.50
16980;DHT22;42288;52.182;21.156;2023-04-24T01:27:17;12.40;73.50
16980;DHT22;42288;52.182;21.156;2023-04-24T01:29:44;12.50;73.30
16980;DHT22;42288;52.182;21.156;2023-04-24T01:32:10;12.60;73.20
16980;DHT22;42288;52.182;21.156;2023-04-24T01:34:36;12.60;73.10
16980;DHT22;42288;52.182;21.156;2023-04-24T01:37:02;12.30;73.40
16980;DHT22;42288;52.182;21.156;2023-04-24T01:39:28;12.30;74.70
16980;DHT22;42288;52.182;21.156;2023-04-24T01:41:55;12.30;75.00
16980;DHT22;42288;52.182;21.156;2023-04-24T01:44:21;12.30;75.20
16980;DHT22;42288;52.182;21.156;2023-04-24T01:46:46;12.30;75.60
16980;DHT22;42288;52.182;21.156;2023-04-24T01:49:12;12.30;75.40
16980;DHT22;42288;52.182;21.156;2023-04-24T01:51:38;12.30;75.70
16980;DHT22;42288;52.182;21.156;2023-04-24T01:54:04;12.20;76.30
16980;DHT22;42288;52.182;21.156;2023-04-24T01:56:33;12.20;76.40
16980;DHT22;42288;52.182;21.156;2023-04-24T01:58:59;12.30;76.20
16980;DHT22;42288;52.182;21.156;2023-04-24T02:01:25;12.30;75.80
16980;DHT22;42288;52.182;21.156;2023-04-24T02:03:51;12.30;75.40
16980;DHT22;42288;52.182;21.156;2023-04-24T02:06:17;12.40;75.20
16980;DHT22;42288;52.182;21.156;2023-04-24T02:08:42;12.40;74.90
16980;DHT22;42288;52.182;21.156;2023-04-24T02:11:09;12.30;74.70
16980;DHT22;42288;52.182;21.156;2023-04-24T02:13:35;12.20;75.10
16980;DHT22;42288;52.182;21.156;2023-04-24T02:16:01;12.10;76.70
16980;DHT22;42288;52.182;21.156;2023-04-24T02:18:26;12.10;75.90
16980;DHT22;42288;52.182;21.156;2023-04-24T02:20:52;12.10;76.30
16980;DHT22;42288;52.182;21.156;2023-04-24T02:23:18;12.00;76.80
16980;DHT22;42288;52.182;21.156;2023-04-24T02:25:43;11.90;77.30
16980;DHT22;42288;52.182;21.156;2023-04-24T02:28:09;11.90;77.50
16980;DHT22;42288;52.182;21.156;2023-04-24T02:30:34;11.90;77.50
16980;DHT22;42288;52.182;21.156;2023-04-24T02:33:00;11.90;77.50
16980;DHT22;42288;52.182;21.156;2023-04-24T02:35:26;11.80;77.00
16980;DHT22;42288;52.182;21.156;2023-04-24T02:37:51;11.80;76.90
16980;DHT22;42288;52.182;21.156;2023-04-24T02:40:17;11.70;76.50
16980;DHT22;42288;52.182;21.156;2023-04-24T02:42:43;11.70;76.40
16980;DHT22;42288;52.182;21.156;2023-04-24T02:45:08;11.50;76.20
16980;DHT22;42288;52.182;21.156;2023-04-24T02:47:34;11.50;76.50
16980;DHT22;42288;52.182;21.156;2023-04-24T02:50:00;11.40;77.00
16980;DHT22;42288;52.182;21.156;2023-04-24T02:52:25;11.50;77.10
16980;DHT22;42288;52.182;21.156;2023-04-24T02:54:51;11.50;76.70
16980;DHT22;42288;52.182;21.156;2023-04-24T02:57:17;11.30;76.60
16980;DHT22;42288;52.182;21.156;2023-04-24T02:59:42;11.40;76.90
16980;DHT22;42288;52.182;21.156;2023-04-24T03:02:08;11.40;77.00
16980;DHT22;42288;52.182;21.156;2023-04-24T03:04:33;11.40;77.20
16980;DHT22;42288;52.182;21.156;2023-04-24T03:06:59;11.40;77.30
16980;DHT22;42288;52.182;21.156;2023-04-24T03:09:24;11.40;77.10
16980;DHT22;42288;52.182;21.156;2023-04-24T03:11:50;11.40;77.00
16980;DHT22;42288;52.182;21.156;2023-04-24T03:14:16;11.20;77.20
16980;DHT22;42288;52.182;21.156;2023-04-24T03:16:42;11.10;77.90
16980;DHT22;42288;52.182;21.156;2023-04-24T03:19:08;11.20;77.80
16980;DHT22;42288;52.182;21.156;2023-04-24T03:21:33;11.10;77.60
16980;DHT22;42288;52.182;21.156;2023-04-24T03:24:01;11.00;78.10
16980;DHT22;42288;52.182;21.156;2023-04-24T03:26:27;11.00;77.90
16980;DHT22;42288;52.182;21.156;2023-04-24T03:28:53;11.00;77.90
16980;DHT22;42288;52.182;21.156;2023-04-24T03:31:18;11.00;77.80
16980;DHT22;42288;52.182;21.156;2023-04-24T03:33:46;11.10;77.60
16980;DHT22;42288;52.182;21.156;2023-04-24T03:36:12;11.20;77.40
16980;DHT22;42288;52.182;21.156;2023-04-24T03:38:37;11.30;77.00
16980;DHT22;42288;52.182;21.156;2023-04-24T03:41:03;11.30;76.80
16980;DHT22;42288;52.182;21.156;2023-04-24T03:43:28;11.30;76.90
16980;DHT22;42288;52.182;21.156;2023-04-24T03:45:54;11.30;77.10
16980;DHT22;42288;52.182;21.156;2023-04-24T03:48:19;11.20;77.40
16980;DHT22;42288;52.182;21.156;2023-04-24T03:50:45;11.20;77.50
16980;DHT22;42288;52.182;21.156;2023-04-24T03:53:11;11.10;77.90
16980;DHT22;42288;52.182;21.156;2023-04-24T03:55:36;11.10;78.00
16980;DHT22;42288;52.182;21.156;2023-04-24T03:58:02;11.20;78.00
16980;DHT22;42288;52.182;21.156;2023-04-24T04:00:27;11.30;78.30
16980;DHT22;42288;52.182;21.156;2023-04-24T04:02:53;11.10;78.40
16980;DHT22;42288;52.182;21.156;2023-04-24T04:05:18;11.20;78.50
16980;DHT22;42288;52.182;21.156;2023-04-24T04:07:44;11.30;78.50
16980;DHT22;42288;52.182;21.156;2023-04-24T04:10:10;11.10;78.40
16980;DHT22;42288;52.182;21.156;2023-04-24T04:12:35;11.10;78.40
16980;DHT22;42288;52.182;21.156;2023-04-24T04:15:01;11.20;78.70
16980;DHT22;42288;52.182;21.156;2023-04-24T04:17:28;11.30;78.40
16980;DHT22;42288;52.182;21.156;2023-04-24T04:19:54;11.30;78.40
16980;DHT22;42288;52.182;21.156;2023-04-24T04:22:20;11.40;78.40
16980;DHT22;42288;52.182;21.156;2023-04-24T04:24:45;11.30;78.30
16980;DHT22;42288;52.182;21.156;2023-04-24T04:27:11;11.30;78.40
16980;DHT22;42288;52.182;21.156;2023-04-24T04:29:37;11.30;78.40
16980;DHT22;42288;52.182;21.156;2023-04-24T04:32:04;11.20;79.20
16980;DHT22;42288;52.182;21.156;2023-04-24T04:34:29;11.30;79.60
16980;DHT22;42288;52.182;21.156;2023-04-24T04:36:57;11.40;79.50
16980;DHT22;42288;52.182;21.156;2023-04-24T04:39:24;11.40;79.50
16980;DHT22;42288;52.182;21.156;2023-04-24T04:41:50;11.40;79.80
16980;DHT22;42288;52.182;21.156;2023-04-24T04:44:16;11.40;80.60
16980;DHT22;42288;52.182;21.156;2023-04-24T04:46:41;11.40;80.00
16980;DHT22;42288;52.182;21.156;2023-04-24T04:49:07;11.50;80.00
16980;DHT22;42288;52.182;21.156;2023-04-24T04:51:34;11.50;80.20
16980;DHT22;42288;52.182;21.156;2023-04-24T04:53:59;11.60;79.90
16980;DHT22;42288;52.182;21.156;2023-04-24T04:56:25;11.60;80.10
16980;DHT22;42288;52.182;21.156;2023-04-24T04:58:51;11.60;79.60
16980;DHT22;42288;52.182;21.156;2023-04-24T05:01:17;11.70;79.90
16980;DHT22;42288;52.182;21.156;2023-04-24T05:03:42;11.80;80.00
16980;DHT22;42288;52.182;21.156;2023-04-24T05:06:08;11.80;79.70
16980;DHT22;42288;52.182;21.156;2023-04-24T05:08:34;11.80;80.40
16980;DHT22;42288;52.182;21.156;2023-04-24T05:10:59;11.80;80.80
16980;DHT22;42288;52.182;21.156;2023-04-24T05:13:25;11.80;80.90
16980;DHT22;42288;52.182;21.156;2023-04-24T05:15:51;11.90;80.90
16980;DHT22;42288;52.182;21.156;2023-04-24T05:18:16;12.10;80.40
16980;DHT22;42288;52.182;21.156;2023-04-24T05:20:42;12.20;80.30
16980;DHT22;42288;52.182;21.156;2023-04-24T05:23:09;12.20;80.00
16980;DHT22;42288;52.182;21.156;2023-04-24T05:25:35;12.10;80.80
16980;DHT22;42288;52.182;21.156;2023-04-24T05:28:01;12.20;80.50
16980;DHT22;42288;52.182;21.156;2023-04-24T05:30:27;12.30;80.10
16980;DHT22;42288;52.182;21.156;2023-04-24T05:32:53;12.30;80.10
16980;DHT22;42288;52.182;21.156;2023-04-24T05:35:19;12.20;80.00
16980;DHT22;42288;52.182;21.156;2023-04-24T05:37:44;12.40;80.00
16980;DHT22;42288;52.182;21.156;2023-04-24T05:40:10;12.60;80.00
16980;DHT22;42288;52.182;21.156;2023-04-24T05:42:36;12.90;79.10
16980;DHT22;42288;52.182;21.156;2023-04-24T05:45:02;12.90;78.30
16980;DHT22;42288;52.182;21.156;2023-04-24T05:47:28;13.20;78.60
16980;DHT22;42288;52.182;21.156;2023-04-24T05:49:53;13.20;77.20
16980;DHT22;42288;52.182;21.156;2023-04-24T05:52:19;13.30;77.20
16980;DHT22;42288;52.182;21.156;2023-04-24T05:54:45;13.40;76.60
16980;DHT22;42288;52.182;21.156;2023-04-24T05:57:11;13.70;76.60
16980;DHT22;42288;52.182;21.156;2023-04-24T05:59:37;13.70;76.30
16980;DHT22;42288;52.182;21.156;2023-04-24T06:02:06;13.90;76.10
16980;DHT22;42288;52.182;21.156;2023-04-24T06:04:33;14.00;75.20
16980;DHT22;42288;52.182;21.156;2023-04-24T06:06:59;14.30;75.30
16980;DHT22;42288;52.182;21.156;2023-04-24T06:09:25;14.50;74.10
16980;DHT22;42288;52.182;21.156;2023-04-24T06:11:51;14.60;74.50
16980;DHT22;42288;52.182;21.156;2023-04-24T06:14:21;14.80;73.70
16980;DHT22;42288;52.182;21.156;2023-04-24T06:16:47;14.90;73.60
16980;DHT22;42288;52.182;21.156;2023-04-24T06:19:13;14.90;72.20
16980;DHT22;42288;52.182;21.156;2023-04-24T06:21:38;15.10;72.10
16980;DHT22;42288;52.182;21.156;2023-04-24T06:24:04;15.20;70.80
16980;DHT22;42288;52.182;21.156;2023-04-24T06:26:30;15.40;71.00
16980;DHT22;42288;52.182;21.156;2023-04-24T06:28:55;15.60;71.50
16980;DHT22;42288;52.182;21.156;2023-04-24T06:31:21;15.80;70.00
16980;DHT22;42288;52.182;21.156;2023-04-24T06:33:48;15.90;68.80
16980;DHT22;42288;52.182;21.156;2023-04-24T06:36:14;16.00;68.10
16980;DHT22;42288;52.182;21.156;2023-04-24T06:38:41;16.00;68.50
16980;DHT22;42288;52.182;21.156;2023-04-24T06:41:06;16.10;68.70
16980;DHT22;42288;52.182;21.156;2023-04-24T06:43:33;16.20;68.50
16980;DHT22;42288;52.182;21.156;2023-04-24T06:45:59;16.10;67.40
16980;DHT22;42288;52.182;21.156;2023-04-24T06:48:25;16.00;67.80
16980;DHT22;42288;52.182;21.156;2023-04-24T06:50:51;15.70;68.30
16980;DHT22;42288;52.182;21.156;2023-04-24T06:53:17;15.70;68.60
16980;DHT22;42288;52.182;21.156;2023-04-24T06:55:43;15.90;69.50
16980;DHT22;42288;52.182;21.156;2023-04-24T06:58:11;16.00;69.50
16980;DHT22;42288;52.182;21.156;2023-04-24T07:00:37;16.10;68.70
16980;DHT22;42288;52.182;21.156;2023-04-24T07:03:03;16.30;70.10
16980;DHT22;42288;52.182;21.156;2023-04-24T07:05:30;16.30;67.00
16980;DHT22;42288;52.182;21.156;2023-04-24T07:07:56;16.70;68.10
16980;DHT22;42288;52.182;21.156;2023-04-24T07:10:24;17.00;67.20
16980;DHT22;42288;52.182;21.156;2023-04-24T07:12:49;17.30;66.10
16980;DHT22;42288;52.182;21.156;2023-04-24T07:15:15;17.50;64.00
16980;DHT22;42288;52.182;21.156;2023-04-24T07:17:41;17.70;64.10
16980;DHT22;42288;52.182;21.156;2023-04-24T07:20:10;18.00;62.30
16980;DHT22;42288;52.182;21.156;2023-04-24T07:22:37;18.30;62.50
16980;DHT22;42288;52.182;21.156;2023-04-24T07:25:03;18.30;62.50
16980;DHT22;42288;52.182;21.156;2023-04-24T07:27:28;18.60;63.60
16980;DHT22;42288;52.182;21.156;2023-04-24T07:29:54;18.70;62.30
16980;DHT22;42288;52.182;21.156;2023-04-24T07:32:20;18.60;61.80
16980;DHT22;42288;52.182;21.156;2023-04-24T07:34:45;18.80;61.90
16980;DHT22;42288;52.182;21.156;2023-04-24T07:37:11;19.00;64.30
16980;DHT22;42288;52.182;21.156;2023-04-24T07:39:37;19.20;61.60
16980;DHT22;42288;52.182;21.156;2023-04-24T07:42:02;19.30;60.30
16980;DHT22;42288;52.182;21.156;2023-04-24T07:44:28;19.40;60.70
16980;DHT22;42288;52.182;21.156;2023-04-24T07:46:55;19.30;60.40
16980;DHT22;42288;52.182;21.156;2023-04-24T07:49:21;19.30;59.90
16980;DHT22;42288;52.182;21.156;2023-04-24T07:51:46;19.60;60.90
16980;DHT22;42288;52.182;21.156;2023-04-24T07:54:12;19.50;59.60
16980;DHT22;42288;52.182;21.156;2023-04-24T07:56:38;19.60;59.20
16980;DHT22;42288;52.182;21.156;2023-04-24T07:59:04;19.60;59.10
16980;DHT22;42288;52.182;21.156;2023-04-24T08:01:30;19.80;59.80
16980;DHT22;42288;52.182;21.156;2023-04-24T08:03:56;20.10;60.20
16980;DHT22;42288;52.182;21.156;2023-04-24T08:06:21;20.30;58.50
16980;DHT22;42288;52.182;21.156;2023-04-24T08:08:47;20.50;58.30
16980;DHT22;42288;52.182;21.156;2023-04-24T08:11:13;20.60;57.50
16980;DHT22;42288;52.182;21.156;2023-04-24T08:13:38;20.90;58.40
16980;DHT22;42288;52.182;21.156;2023-04-24T08:16:04;21.10;57.10
16980;DHT22;42288;52.182;21.156;2023-04-24T08:18:30;21.40;56.70
16980;DHT22;42288;52.182;21.156;2023-04-24T08:20:55;21.50;57.10
16980;DHT22;42288;52.182;21.156;2023-04-24T08:23:26;21.60;55.60
16980;DHT22;42288;52.182;21.156;2023-04-24T08:25:52;21.80;55.50
16980;DHT22;42288;52.182;21.156;2023-04-24T08:28:17;22.00;55.40
16980;DHT22;42288;52.182;21.156;2023-04-24T08:30:46;22.10;55.60
16980;DHT22;42288;52.182;21.156;2023-04-24T08:33:12;22.10;54.00
16980;DHT22;42288;52.182;21.156;2023-04-24T08:35:38;22.20;54.40
16980;DHT22;42288;52.182;21.156;2023-04-24T08:38:04;22.30;55.10
16980;DHT22;42288;52.182;21.156;2023-04-24T08:40:34;22.50;53.30
16980;DHT22;42288;52.182;21.156;2023-04-24T08:43:00;22.60;53.80
16980;DHT22;42288;52.182;21.156;2023-04-24T08:45:26;22.60;53.20
16980;DHT22;42288;52.182;21.156;2023-04-24T08:47:55;22.70;52.90
16980;DHT22;42288;52.182;21.156;2023-04-24T08:50:21;23.00;52.90
16980;DHT22;42288;52.182;21.156;2023-04-24T08:52:50;23.00;53.60
16980;DHT22;42288;52.182;21.156;2023-04-24T08:55:16;23.20;54.60
16980;DHT22;42288;52.182;21.156;2023-04-24T08:57:45;23.30;53.00
16980;DHT22;42288;52.182;21.156;2023-04-24T09:00:11;22.80;51.70
16980;DHT22;42288;52.182;21.156;2023-04-24T09:02:41;22.70;52.10
16980;DHT22;42288;52.182;21.156;2023-04-24T09:05:08;22.70;52.10
16980;DHT22;42288;52.182;21.156;2023-04-24T09:07:35;22.50;51.60
16980;DHT22;42288;52.182;21.156;2023-04-24T09:10:04;21.80;52.60
16980;DHT22;42288;52.182;21.156;2023-04-24T09:12:30;21.70;52.70
16980;DHT22;42288;52.182;21.156;2023-04-24T09:14:56;21.60;52.50
16980;DHT22;42288;52.182;21.156;2023-04-24T09:17:22;21.70;53.30
16980;DHT22;42288;52.182;21.156;2023-04-24T09:19:48;22.00;53.40
16980;DHT22;42288;52.182;21.156;2023-04-24T09:22:15;21.90;53.20
16980;DHT22;42288;52.182;21.156;2023-04-24T09:24:41;21.70;54.90
16980;DHT22;42288;52.182;21.156;2023-04-24T09:27:07;22.00;55.60
16980;DHT22;42288;52.182;21.156;2023-04-24T09:29:32;22.30;54.70
16980;DHT22;42288;52.182;21.156;2023-04-24T09:31:58;22.50;54.60
16980;DHT22;42288;52.182;21.156;2023-04-24T09:34:26;22.70;54.10
16980;DHT22;42288;52.182;21.156;2023-04-24T09:36:52;22.90;53.60
16980;DHT22;42288;52.182;21.156;2023-04-24T09:39:19;23.00;53.70
16980;DHT22;42288;52.182;21.156;2023-04-24T09:41:51;23.20;52.50
16980;DHT22;42288;52.182;21.156;2023-04-24T09:44:18;23.30;52.60
16980;DHT22;42288;52.182;21.156;2023-04-24T09:46:56;23.40;52.90
16980;DHT22;42288;52.182;21.156;2023-04-24T09:49:24;23.10;52.80
16980;DHT22;42288;52.182;21.156;2023-04-24T09:51:50;23.30;52.90
16980;DHT22;42288;52.182;21.156;2023-04-24T09:54:18;23.20;52.60
16980;DHT22;42288;52.182;21.156;2023-04-24T09:56:47;23.10;50.70
16980;DHT22;42288;52.182;21.156;2023-04-24T09:59:14;23.10;51.40
16980;DHT22;42288;52.182;21.156;2023-04-24T10:01:40;23.30;52.10
16980;DHT22;42288;52.182;21.156;2023-04-24T10:04:21;23.40;50.20
16980;DHT22;42288;52.182;21.156;2023-04-24T10:06:49;23.60;49.60
16980;DHT22;42288;52.182;21.156;2023-04-24T10:09:16;24.00;49.20
16980;DHT22;42288;52.182;21.156;2023-04-24T10:11:44;23.60;47.10
16980;DHT22;42288;52.182;21.156;2023-04-24T10:14:14;23.50;47.90
16980;DHT22;42288;52.182;21.156;2023-04-24T10:16:41;23.80;49.40
16980;DHT22;42288;52.182;21.156;2023-04-24T10:19:07;23.80;49.40
16980;DHT22;42288;52.182;21.156;2023-04-24T10:21:34;24.00;48.80
16980;DHT22;42288;52.182;21.156;2023-04-24T10:24:00;24.50;48.80
16980;DHT22;42288;52.182;21.156;2023-04-24T10:26:29;24.80;48.40
16980;DHT22;42288;52.182;21.156;2023-04-24T10:28:57;25.30;48.20
16980;DHT22;42288;52.182;21.156;2023-04-24T10:31:24;26.00;46.90
16980;DHT22;42288;52.182;21.156;2023-04-24T10:33:51;28.90;43.80
16980;DHT22;42288;52.182;21.156;2023-04-24T10:36:19;31.00;39.20
16980;DHT22;42288;52.182;21.156;2023-04-24T10:38:47;30.60;37.00
16980;DHT22;42288;52.182;21.156;2023-04-24T10:41:14;32.00;36.20
16980;DHT22;42288;52.182;21.156;2023-04-24T10:43:45;33.80;36.30
16980;DHT22;42288;52.182;21.156;2023-04-24T10:46:19;35.00;32.60
16980;DHT22;42288;52.182;21.156;2023-04-24T10:48:53;35.80;32.50
16980;DHT22;42288;52.182;21.156;2023-04-24T10:51:24;36.70;31.20
16980;DHT22;42288;52.182;21.156;2023-04-24T10:59:44;36.00;32.30
16980;DHT22;42288;52.182;21.156;2023-04-24T11:02:09;37.30;30.20
16980;DHT22;42288;52.182;21.156;2023-04-24T11:04:35;38.10;29.10
16980;DHT22;42288;52.182;21.156;2023-04-24T11:07:03;37.70;27.40
16980;DHT22;42288;52.182;21.156;2023-04-24T11:09:31;37.50;29.10
16980;DHT22;42288;52.182;21.156;2023-04-24T11:12:07;37.20;28.60
16980;DHT22;42288;52.182;21.156;2023-04-24T11:17:34;33.50;30.60
16980;DHT22;42288;52.182;21.156;2023-04-24T11:20:10;32.60;31.10
16980;DHT22;42288;52.182;21.156;2023-04-24T11:22:38;31.80;34.10
16980;DHT22;42288;52.182;21.156;2023-04-24T11:25:06;31.50;34.00
16980;DHT22;42288;52.182;21.156;2023-04-24T11:27:42;30.90;34.80
16980;DHT22;42288;52.182;21.156;2023-04-24T11:30:08;29.90;35.30
16980;DHT22;42288;52.182;21.156;2023-04-24T11:32:37;29.20;36.40
16980;DHT22;42288;52.182;21.156;2023-04-24T11:35:16;27.60;38.20
16980;DHT22;42288;52.182;21.156;2023-04-24T11:37:47;27.30;40.60
16980;DHT22;42288;52.182;21.156;2023-04-24T11:40:15;28.10;38.20
16980;DHT22;42288;52.182;21.156;2023-04-24T11:42:43;28.30;39.30
16980;DHT22;42288;52.182;21.156;2023-04-24T11:45:14;27.80;38.70
16980;DHT22;42288;52.182;21.156;2023-04-24T11:47:40;27.50;39.30
16980;DHT22;42288;52.182;21.156;2023-04-24T11:50:09;27.70;39.70
16980;DHT22;42288;52.182;21.156;2023-04-24T11:52:39;27.70;39.50
16980;DHT22;42288;52.182;21.156;2023-04-24T11:55:07;27.40;40.10
16980;DHT22;42288;52.182;21.156;2023-04-24T11:57:33;27.50;40.60
16980;DHT22;42288;52.182;21.156;2023-04-24T12:00:04;27.60;41.20
16980;DHT22;42288;52.182;21.156;2023-04-24T12:02:30;27.60;39.90
16980;DHT22;42288;52.182;21.156;2023-04-24T12:04:56;26.80;39.90
16980;DHT22;42288;52.182;21.156;2023-04-24T12:07:23;26.40;41.90
16980;DHT22;42288;52.182;21.156;2023-04-24T12:09:58;26.50;40.80
16980;DHT22;42288;52.182;21.156;2023-04-24T12:12:27;25.90;40.80
16980;DHT22;42288;52.182;21.156;2023-04-24T12:14:55;25.60;41.80
16980;DHT22;42288;52.182;21.156;2023-04-24T12:17:32;25.20;41.80
16980;DHT22;42288;52.182;21.156;2023-04-24T12:20:02;24.90;42.40
16980;DHT22;42288;52.182;21.156;2023-04-24T12:22:46;25.00;42.20
16980;DHT22;42288;52.182;21.156;2023-04-24T12:25:13;24.70;41.50
16980;DHT22;42288;52.182;21.156;2023-04-24T12:27:40;24.70;42.50
16980;DHT22;42288;52.182;21.156;2023-04-24T12:30:09;24.80;43.20
16980;DHT22;42288;52.182;21.156;2023-04-24T12:32:40;25.20;42.90
16980;DHT22;42288;52.182;21.156;2023-04-24T12:35:06;25.10;42.00
16980;DHT22;42288;52.182;21.156;2023-04-24T12:37:33;25.50;41.90
16980;DHT22;42288;52.182;21.156;2023-04-24T12:40:00;25.30;41.60
16980;DHT22;42288;52.182;21.156;2023-04-24T12:42:30;25.60;41.00
16980;DHT22;42288;52.182;21.156;2023-04-24T12:45:01;26.00;40.70
16980;DHT22;42288;52.182;21.156;2023-04-24T12:47:27;26.30;39.70
16980;DHT22;42288;52.182;21.156;2023-04-24T12:49:54;26.30;39.90
16980;DHT22;42288;52.182;21.156;2023-04-24T12:52:24;26.50;40.60
16980;DHT22;42288;52.182;21.156;2023-04-24T12:54:53;26.10;41.00
16980;DHT22;42288;52.182;21.156;2023-04-24T12:57:20;25.70;42.40
16980;DHT22;42288;52.182;21.156;2023-04-24T12:59:46;25.90;42.60
16980;DHT22;42288;52.182;21.156;2023-04-24T13:02:12;25.40;43.40
16980;DHT22;42288;52.182;21.156;2023-04-24T13:04:37;25.30;44.50
16980;DHT22;42288;52.182;21.156;2023-04-24T13:07:03;25.00;44.50
16980;DHT22;42288;52.182;21.156;2023-04-24T13:09:30;25.20;44.30
16980;DHT22;42288;52.182;21.156;2023-04-24T13:11:55;24.50;44.10
16980;DHT22;42288;52.182;21.156;2023-04-24T13:14:22;24.70;45.60
16980;DHT22;42288;52.182;21.156;2023-04-24T13:16:48;24.80;45.10
16980;DHT22;42288;52.182;21.156;2023-04-24T13:19:13;25.10;45.10
16980;DHT22;42288;52.182;21.156;2023-04-24T13:21:39;25.70;43.80
16980;DHT22;42288;52.182;21.156;2023-04-24T13:24:05;26.10;42.60
16980;DHT22;42288;52.182;21.156;2023-04-24T13:26:33;27.10;42.20
16980;DHT22;42288;52.182;21.156;2023-04-24T13:28:58;26.50;41.40
16980;DHT22;42288;52.182;21.156;2023-04-24T13:31:24;25.20;43.20
16980;DHT22;42288;52.182;21.156;2023-04-24T13:33:49;24.70;44.10
16980;DHT22;42288;52.182;21.156;2023-04-24T13:36:15;23.80;45.20
16980;DHT22;42288;52.182;21.156;2023-04-24T13:38:43;23.40;46.90
16980;DHT22;42288;52.182;21.156;2023-04-24T13:41:08;23.00;47.40
16980;DHT22;42288;52.182;21.156;2023-04-24T13:43:34;22.80;47.90
16980;DHT22;42288;52.182;21.156;2023-04-24T13:46:00;22.90;48.20
16980;DHT22;42288;52.182;21.156;2023-04-24T13:48:28;22.30;47.90
16980;DHT22;42288;52.182;21.156;2023-04-24T13:50:54;22.00;49.40
16980;DHT22;42288;52.182;21.156;2023-04-24T13:53:19;21.60;50.80
16980;DHT22;42288;52.182;21.156;2023-04-24T13:55:45;21.60;49.30
16980;DHT22;42288;52.182;21.156;2023-04-24T13:58:11;21.40;47.90
16980;DHT22;42288;52.182;21.156;2023-04-24T14:00:36;21.70;49.40
16980;DHT22;42288;52.182;21.156;2023-04-24T14:03:02;21.80;49.40
16980;DHT22;42288;52.182;21.156;2023-04-24T14:05:28;21.70;48.70
16980;DHT22;42288;52.182;21.156;2023-04-24T14:07:53;21.70;52.20
16980;DHT22;42288;52.182;21.156;2023-04-24T14:10:19;22.90;51.10
16980;DHT22;42288;52.182;21.156;2023-04-24T14:12:44;22.90;51.30
16980;DHT22;42288;52.182;21.156;2023-04-24T14:15:10;22.90;49.00
16980;DHT22;42288;52.182;21.156;2023-04-24T14:17:37;24.00;46.00
16980;DHT22;42288;52.182;21.156;2023-04-24T14:20:03;25.10;44.70
16980;DHT22;42288;52.182;21.156;2023-04-24T14:22:29;26.50;41.30
16980;DHT22;42288;52.182;21.156;2023-04-24T14:24:55;26.70;40.50
16980;DHT22;42288;52.182;21.156;2023-04-24T14:27:21;27.60;40.60
16980;DHT22;42288;52.182;21.156;2023-04-24T14:29:46;28.20;39.60
16980;DHT22;42288;52.182;21.156;2023-04-24T14:32:12;29.50;37.40
16980;DHT22;42288;52.182;21.156;2023-04-24T14:34:40;30.70;35.40
16980;DHT22;42288;52.182;21.156;2023-04-24T14:37:06;31.60;33.60
16980;DHT22;42288;52.182;21.156;2023-04-24T14:39:31;31.70;32.90
16980;DHT22;42288;52.182;21.156;2023-04-24T14:41:57;31.60;32.70
16980;DHT22;42288;52.182;21.156;2023-04-24T14:44:22;31.00;32.00
16980;DHT22;42288;52.182;21.156;2023-04-24T14:46:48;29.90;32.90
16980;DHT22;42288;52.182;21.156;2023-04-24T14:49:14;29.40;34.30
16980;DHT22;42288;52.182;21.156;2023-04-24T14:51:40;28.60;34.70
16980;DHT22;42288;52.182;21.156;2023-04-24T14:54:06;28.00;35.50
16980;DHT22;42288;52.182;21.156;2023-04-24T14:56:32;27.40;36.70
16980;DHT22;42288;52.182;21.156;2023-04-24T14:58:58;27.70;37.10
16980;DHT22;42288;52.182;21.156;2023-04-24T15:01:24;26.90;37.90
16980;DHT22;42288;52.182;21.156;2023-04-24T15:03:49;26.50;37.90
16980;DHT22;42288;52.182;21.156;2023-04-24T15:06:15;26.10;38.70
16980;DHT22;42288;52.182;21.156;2023-04-24T15:08:41;27.30;39.10
16980;DHT22;42288;52.182;21.156;2023-04-24T15:11:07;26.80;38.00
16980;DHT22;42288;52.182;21.156;2023-04-24T15:13:33;26.00;39.80
16980;DHT22;42288;52.182;21.156;2023-04-24T15:15:59;25.30;39.80
16980;DHT22;42288;52.182;21.156;2023-04-24T15:18:24;25.30;41.40
16980;DHT22;42288;52.182;21.156;2023-04-24T15:20:50;25.80;41.40